sensor_id;sensor_type;location;lat;lon;timestamp;temperature;humidity
68511;SHT31;55512;50.102;19.958;2022-08-21T00:00:54;24.25;63.39
68511;SHT31;55512;50.102;19.958;2022-08-21T00:03:20;24.21;63.52
68511;SHT31;55512;50.102;19.958;2022-08-21T00:05:47;24.18;63.67
68511;SHT31;55512;50.102;19.958;2022-08-21T00:08:16;24.18;63.75
68511;SHT31;55512;50.102;19.958;2022-08-21T00:10:43;24.13;63.87
68511;SHT31;55512;50.102;19.958;2022-08-21T00:13:10;24.11;63.98
68511;SHT31;55512;50.102;19.958;2022-08-21T00:15:37;24.08;64.08
68511;SHT31;55512;50.102;19.958;2022-08-21T00:18:05;24.05;64.19
68511;SHT31;55512;50.102;19.958;2022-08-21T00:20:33;24.01;64.29
68511;SHT31;55512;50.102;19.958;2022-08-21T00:23:00;23.97;64.41
68511;SHT31;55512;50.102;19.958;2022-08-21T00:25:26;23.92;64.51
68511;SHT31;55512;50.102;19.958;2022-08-21T00:27:52;23.85;64.67
68511;SHT31;55512;50.102;19.958;2022-08-21T00:30:20;23.78;64.81
68511;SHT31;55512;50.102;19.958;2022-08-21T00:32:50;23.70;64.97
68511;SHT31;55512;50.102;19.958;2022-08-21T00:35:20;23.68;65.16
68511;SHT31;55512;50.102;19.958;2022-08-21T00:37:50;23.67;65.27
68511;SHT31;55512;50.102;19.958;2022-08-21T00:40:17;23.64;65.32
68511;SHT31;55512;50.102;19.958;2022-08-21T00:42:48;23.58;65.51
68511;SHT31;55512;50.102;19.958;2022-08-21T00:45:15;23.52;65.67
68511;SHT31;55512;50.102;19.958;2022-08-21T00:47:41;23.47;65.89
68511;SHT31;55512;50.102;19.958;2022-08-21T00:50:08;23.51;65.90
68511;SHT31;55512;50.102;19.958;2022-08-21T00:52:36;23.59;65.89
68511;SHT31;55512;50.102;19.958;2022-08-21T00:55:05;23.65;65.80
68511;SHT31;55512;50.102;19.958;2022-08-21T00:57:44;23.69;65.77
68511;SHT31;55512;50.102;19.958;2022-08-21T01:00:17;23.76;65.71
68511;SHT31;55512;50.102;19.958;2022-08-21T01:02:48;23.83;65.64
68511;SHT31;55512;50.102;19.958;2022-08-21T01:05:14;23.90;65.53
68511;SHT31;55512;50.102;19.958;2022-08-21T01:07:41;23.95;65.44
68511;SHT31;55512;50.102;19.958;2022-08-21T01:10:07;24.00;65.34
68511;SHT31;55512;50.102;19.958;2022-08-21T01:12:34;24.04;65.27
68511;SHT31;55512;50.102;19.958;2022-08-21T01:15:02;24.07;65.22
68511;SHT31;55512;50.102;19.958;2022-08-21T01:17:29;24.09;65.19
68511;SHT31;55512;50.102;19.958;2022-08-21T01:19:57;24.11;65.12
68511;SHT31;55512;50.102;19.958;2022-08-21T01:22:25;24.12;65.10
68511;SHT31;55512;50.102;19.958;2022-08-21T01:24:51;24.13;65.10
68511;SHT31;55512;50.102;19.958;2022-08-21T01:27:17;24.14;65.10
68511;SHT31;55512;50.102;19.958;2022-08-21T01:29:44;24.16;65.02
68511;SHT31;55512;50.102;19.958;2022-08-21T01:32:22;24.15;64.92
68511;SHT31;55512;50.102;19.958;2022-08-21T01:34:49;24.12;64.99
68511;SHT31;55512;50.102;19.958;2022-08-21T01:37:17;24.08;65.04
68511;SHT31;55512;50.102;19.958;2022-08-21T01:39:45;24.09;65.05
68511;SHT31;55512;50.102;19.958;2022-08-21T01:42:11;24.12;64.99
68511;SHT31;55512;50.102;19.958;2022-08-21T01:44:39;24.14;64.90
68511;SHT31;55512;50.102;19.958;2022-08-21T01:47:06;24.15;64.85
68511;SHT31;55512;50.102;19.958;2022-08-21T01:49:36;24.14;64.80
68511;SHT31;55512;50.102;19.958;2022-08-21T01:52:03;24.14;64.78
68511;SHT31;55512;50.102;19.958;2022-08-21T01:54:30;24.15;64.70
68511;SHT31;55512;50.102;19.958;2022-08-21T01:56:56;24.15;64.60
68511;SHT31;55512;50.102;19.958;2022-08-21T01:59:23;24.17;64.55
68511;SHT31;55512;50.102;19.958;2022-08-21T02:01:50;24.18;64.50
68511;SHT31;55512;50.102;19.958;2022-08-21T02:04:18;24.17;64.47
68511;SHT31;55512;50.102;19.958;2022-08-21T02:06:45;24.19;64.46
68511;SHT31;55512;50.102;19.958;2022-08-21T02:09:11;24.21;64.40
68511;SHT31;55512;50.102;19.958;2022-08-21T02:11:39;24.19;64.43
68511;SHT31;55512;50.102;19.958;2022-08-21T02:14:09;24.17;64.47
68511;SHT31;55512;50.102;19.958;2022-08-21T02:16:39;24.16;64.39
68511;SHT31;55512;50.102;19.958;2022-08-21T02:19:07;24.14;64.20
68511;SHT31;55512;50.102;19.958;2022-08-21T02:21:33;24.13;64.11
68511;SHT31;55512;50.102;19.958;2022-08-21T02:23:59;24.08;64.14
68511;SHT31;55512;50.102;19.958;2022-08-21T02:26:25;24.05;64.22
68511;SHT31;55512;50.102;19.958;2022-08-21T02:28:51;24.02;64.17
68511;SHT31;55512;50.102;19.958;2022-08-21T02:31:17;23.98;64.28
68511;SHT31;55512;50.102;19.958;2022-08-21T02:33:43;23.96;64.30
68511;SHT31;55512;50.102;19.958;2022-08-21T02:36:09;23.89;64.33
68511;SHT31;55512;50.102;19.958;2022-08-21T02:38:37;23.82;64.45
68511;SHT31;55512;50.102;19.958;2022-08-21T02:41:06;23.76;64.61
68511;SHT31;55512;50.102;19.958;2022-08-21T02:43:36;23.69;64.77
68511;SHT31;55512;50.102;19.958;2022-08-21T02:46:02;23.62;64.84
68511;SHT31;55512;50.102;19.958;2022-08-21T02:48:30;23.58;65.00
68511;SHT31;55512;50.102;19.958;2022-08-21T02:50:58;23.57;65.10
68511;SHT31;55512;50.102;19.958;2022-08-21T02:53:31;23.54;65.20
68511;SHT31;55512;50.102;19.958;2022-08-21T02:55:59;23.52;65.24
68511;SHT31;55512;50.102;19.958;2022-08-21T02:58:32;23.49;65.36
68511;SHT31;55512;50.102;19.958;2022-08-21T03:01:03;23.47;65.47
68511;SHT31;55512;50.102;19.958;2022-08-21T03:03:34;23.43;65.47
68511;SHT31;55512;50.102;19.958;2022-08-21T03:06:04;23.36;65.64
68511;SHT31;55512;50.102;19.958;2022-08-21T03:08:33;23.30;65.79
68511;SHT31;55512;50.102;19.958;2022-08-21T03:10:58;23.27;65.94
68511;SHT31;55512;50.102;19.958;2022-08-21T03:13:24;23.22;66.05
68511;SHT31;55512;50.102;19.958;2022-08-21T03:15:50;23.23;66.20
68511;SHT31;55512;50.102;19.958;2022-08-21T03:18:15;23.22;66.25
68511;SHT31;55512;50.102;19.958;2022-08-21T03:20:42;23.22;66.20
68511;SHT31;55512;50.102;19.958;2022-08-21T03:23:10;23.16;66.42
68511;SHT31;55512;50.102;19.958;2022-08-21T03:25:37;23.14;66.51
68511;SHT31;55512;50.102;19.958;2022-08-21T03:28:04;23.11;66.66
68511;SHT31;55512;50.102;19.958;2022-08-21T03:30:35;23.10;66.80
68511;SHT31;55512;50.102;19.958;2022-08-21T03:33:01;23.15;66.79
68511;SHT31;55512;50.102;19.958;2022-08-21T03:35:27;23.22;66.71
68511;SHT31;55512;50.102;19.958;2022-08-21T03:37:54;23.27;66.70
68511;SHT31;55512;50.102;19.958;2022-08-21T03:40:21;23.31;66.70
68511;SHT31;55512;50.102;19.958;2022-08-21T03:42:49;23.39;66.63
68511;SHT31;55512;50.102;19.958;2022-08-21T03:45:16;23.46;66.51
68511;SHT31;55512;50.102;19.958;2022-08-21T03:47:58;23.51;66.40
68511;SHT31;55512;50.102;19.958;2022-08-21T03:50:29;23.55;66.38
68511;SHT31;55512;50.102;19.958;2022-08-21T03:52:59;23.59;66.28
68511;SHT31;55512;50.102;19.958;2022-08-21T03:55:25;23.65;66.17
68511;SHT31;55512;50.102;19.958;2022-08-21T03:57:51;23.68;66.06
68511;SHT31;55512;50.102;19.958;2022-08-21T04:00:18;23.69;66.01
68511;SHT31;55512;50.102;19.958;2022-08-21T04:02:45;23.72;65.96
68511;SHT31;55512;50.102;19.958;2022-08-21T04:05:12;23.75;65.90
68511;SHT31;55512;50.102;19.958;2022-08-21T04:07:51;23.78;65.80
68511;SHT31;55512;50.102;19.958;2022-08-21T04:10:28;23.79;65.71
68511;SHT31;55512;50.102;19.958;2022-08-21T04:12:56;23.81;65.64
68511;SHT31;55512;50.102;19.958;2022-08-21T04:15:23;23.78;65.62
68511;SHT31;55512;50.102;19.958;2022-08-21T04:17:50;23.77;65.68
68511;SHT31;55512;50.102;19.958;2022-08-21T04:20:17;23.81;65.65
68511;SHT31;55512;50.102;19.958;2022-08-21T04:22:44;23.83;65.56
68511;SHT31;55512;50.102;19.958;2022-08-21T04:25:11;23.85;65.50
68511;SHT31;55512;50.102;19.958;2022-08-21T04:27:38;23.83;65.50
68511;SHT31;55512;50.102;19.958;2022-08-21T04:30:05;23.83;65.53
68511;SHT31;55512;50.102;19.958;2022-08-21T04:32:34;23.83;65.52
68511;SHT31;55512;50.102;19.958;2022-08-21T04:35:02;23.82;65.61
68511;SHT31;55512;50.102;19.958;2022-08-21T04:37:33;23.85;65.61
68511;SHT31;55512;50.102;19.958;2022-08-21T04:39:59;23.87;65.64
68511;SHT31;55512;50.102;19.958;2022-08-21T04:42:26;23.89;65.62
68511;SHT31;55512;50.102;19.958;2022-08-21T04:44:53;23.93;65.61
68511;SHT31;55512;50.102;19.958;2022-08-21T04:47:19;23.95;65.57
68511;SHT31;55512;50.102;19.958;2022-08-21T04:49:46;23.97;65.52
68511;SHT31;55512;50.102;19.958;2022-08-21T04:52:13;23.98;65.53
68511;SHT31;55512;50.102;19.958;2022-08-21T04:54:44;23.95;65.56
68511;SHT31;55512;50.102;19.958;2022-08-21T04:57:12;23.90;65.71
68511;SHT31;55512;50.102;19.958;2022-08-21T04:59:42;23.87;65.79
68511;SHT31;55512;50.102;19.958;2022-08-21T05:02:13;23.85;65.91
68511;SHT31;55512;50.102;19.958;2022-08-21T05:04:42;23.81;65.99
68511;SHT31;55512;50.102;19.958;2022-08-21T05:07:14;23.75;66.09
68511;SHT31;55512;50.102;19.958;2022-08-21T05:09:47;23.70;66.26
68511;SHT31;55512;50.102;19.958;2022-08-21T05:12:13;23.65;66.39
68511;SHT31;55512;50.102;19.958;2022-08-21T05:14:40;23.62;66.53
68511;SHT31;55512;50.102;19.958;2022-08-21T05:17:07;23.61;66.67
68511;SHT31;55512;50.102;19.958;2022-08-21T05:19:34;23.60;66.67
68511;SHT31;55512;50.102;19.958;2022-08-21T05:22:00;23.57;66.77
68511;SHT31;55512;50.102;19.958;2022-08-21T05:24:26;23.55;66.87
68511;SHT31;55512;50.102;19.958;2022-08-21T05:26:52;23.55;66.93
68511;SHT31;55512;50.102;19.958;2022-08-21T05:29:18;23.52;66.99
68511;SHT31;55512;50.102;19.958;2022-08-21T05:31:45;23.50;67.10
68511;SHT31;55512;50.102;19.958;2022-08-21T05:34:13;23.50;67.11
68511;SHT31;55512;50.102;19.958;2022-08-21T05:36:43;23.49;67.26
68511;SHT31;55512;50.102;19.958;2022-08-21T05:39:09;23.50;67.37
68511;SHT31;55512;50.102;19.958;2022-08-21T05:41:34;23.50;67.47
68511;SHT31;55512;50.102;19.958;2022-08-21T05:44:00;23.48;67.52
68511;SHT31;55512;50.102;19.958;2022-08-21T05:46:26;23.47;67.67
68511;SHT31;55512;50.102;19.958;2022-08-21T05:48:52;23.49;67.70
68511;SHT31;55512;50.102;19.958;2022-08-21T05:51:18;23.49;67.71
68511;SHT31;55512;50.102;19.958;2022-08-21T05:53:43;23.48;67.78
68511;SHT31;55512;50.102;19.958;2022-08-21T05:56:09;23.50;67.81
68511;SHT31;55512;50.102;19.958;2022-08-21T05:58:37;23.53;67.81
68511;SHT31;55512;50.102;19.958;2022-08-21T06:01:04;23.53;67.86
68511;SHT31;55512;50.102;19.958;2022-08-21T06:03:31;23.56;67.95
68511;SHT31;55512;50.102;19.958;2022-08-21T06:06:00;23.63;68.00
68511;SHT31;55512;50.102;19.958;2022-08-21T06:08:27;23.75;67.88
68511;SHT31;55512;50.102;19.958;2022-08-21T06:10:54;23.89;67.73
68511;SHT31;55512;50.102;19.958;2022-08-21T06:13:23;24.04;67.52
68511;SHT31;55512;50.102;19.958;2022-08-21T06:16:00;24.16;67.28
68511;SHT31;55512;50.102;19.958;2022-08-21T06:18:38;24.27;67.03
68511;SHT31;55512;50.102;19.958;2022-08-21T06:21:04;24.33;66.86
68511;SHT31;55512;50.102;19.958;2022-08-21T06:23:32;24.41;66.68
68511;SHT31;55512;50.102;19.958;2022-08-21T06:25:59;24.44;66.53
68511;SHT31;55512;50.102;19.958;2022-08-21T06:28:27;24.48;66.48
68511;SHT31;55512;50.102;19.958;2022-08-21T06:30:52;24.56;66.37
68511;SHT31;55512;50.102;19.958;2022-08-21T06:33:18;24.61;66.23
68511;SHT31;55512;50.102;19.958;2022-08-21T06:35:44;24.63;66.13
68511;SHT31;55512;50.102;19.958;2022-08-21T06:38:10;24.63;66.16
68511;SHT31;55512;50.102;19.958;2022-08-21T06:40:36;24.68;65.98
68511;SHT31;55512;50.102;19.958;2022-08-21T06:43:10;24.74;65.87
68511;SHT31;55512;50.102;19.958;2022-08-21T06:45:39;24.78;65.75
68511;SHT31;55512;50.102;19.958;2022-08-21T06:48:05;24.79;65.69
68511;SHT31;55512;50.102;19.958;2022-08-21T06:50:34;24.82;65.59
68511;SHT31;55512;50.102;19.958;2022-08-21T06:53:05;24.87;65.50
68511;SHT31;55512;50.102;19.958;2022-08-21T06:55:36;24.95;65.33
68511;SHT31;55512;50.102;19.958;2022-08-21T06:58:04;25.02;65.19
68511;SHT31;55512;50.102;19.958;2022-08-21T07:00:31;25.07;64.99
68511;SHT31;55512;50.102;19.958;2022-08-21T07:02:58;25.14;64.90
68511;SHT31;55512;50.102;19.958;2022-08-21T07:05:27;25.18;64.74
68511;SHT31;55512;50.102;19.958;2022-08-21T07:07:54;25.23;64.63
68511;SHT31;55512;50.102;19.958;2022-08-21T07:10:22;25.27;64.59
68511;SHT31;55512;50.102;19.958;2022-08-21T07:12:49;25.34;64.47
68511;SHT31;55512;50.102;19.958;2022-08-21T07:15:16;25.38;64.30
68511;SHT31;55512;50.102;19.958;2022-08-21T07:17:42;25.40;64.20
68511;SHT31;55512;50.102;19.958;2022-08-21T07:20:10;25.39;64.18
68511;SHT31;55512;50.102;19.958;2022-08-21T07:22:38;25.40;64.10
68511;SHT31;55512;50.102;19.958;2022-08-21T07:25:05;25.44;64.03
68511;SHT31;55512;50.102;19.958;2022-08-21T07:27:32;25.43;63.92
68511;SHT31;55512;50.102;19.958;2022-08-21T07:29:58;25.38;64.00
68511;SHT31;55512;50.102;19.958;2022-08-21T07:32:24;25.28;64.05
68511;SHT31;55512;50.102;19.958;2022-08-21T07:34:50;25.18;64.24
68511;SHT31;55512;50.102;19.958;2022-08-21T07:37:16;25.17;64.30
68511;SHT31;55512;50.102;19.958;2022-08-21T07:39:41;25.14;64.30
68511;SHT31;55512;50.102;19.958;2022-08-21T07:42:07;25.13;64.36
68511;SHT31;55512;50.102;19.958;2022-08-21T07:44:33;25.11;64.40
68511;SHT31;55512;50.102;19.958;2022-08-21T07:46:59;25.08;64.47
68511;SHT31;55512;50.102;19.958;2022-08-21T07:49:26;25.00;64.63
68511;SHT31;55512;50.102;19.958;2022-08-21T07:51:52;24.96;64.77
68511;SHT31;55512;50.102;19.958;2022-08-21T07:54:18;24.97;64.75
68511;SHT31;55512;50.102;19.958;2022-08-21T07:56:44;24.95;64.77
68511;SHT31;55512;50.102;19.958;2022-08-21T07:59:10;24.95;64.80
68511;SHT31;55512;50.102;19.958;2022-08-21T08:01:36;24.95;64.86
68511;SHT31;55512;50.102;19.958;2022-08-21T08:04:01;24.96;64.90
68511;SHT31;55512;50.102;19.958;2022-08-21T08:06:27;24.94;64.94
68511;SHT31;55512;50.102;19.958;2022-08-21T08:08:53;24.95;64.99
68511;SHT31;55512;50.102;19.958;2022-08-21T08:11:18;24.94;65.01
68511;SHT31;55512;50.102;19.958;2022-08-21T08:13:48;24.93;65.10
68511;SHT31;55512;50.102;19.958;2022-08-21T08:16:17;24.94;65.15
68511;SHT31;55512;50.102;19.958;2022-08-21T08:18:43;24.95;65.21
68511;SHT31;55512;50.102;19.958;2022-08-21T08:21:10;24.97;65.20
68511;SHT31;55512;50.102;19.958;2022-08-21T08:23:37;25.03;65.23
68511;SHT31;55512;50.102;19.958;2022-08-21T08:26:04;25.11;65.26
68511;SHT31;55512;50.102;19.958;2022-08-21T08:28:30;25.24;65.05
68511;SHT31;55512;50.102;19.958;2022-08-21T08:30:58;25.34;64.82
68511;SHT31;55512;50.102;19.958;2022-08-21T08:33:25;25.38;64.75
68511;SHT31;55512;50.102;19.958;2022-08-21T08:35:51;25.41;64.72
68511;SHT31;55512;50.102;19.958;2022-08-21T08:38:17;25.43;64.69
68511;SHT31;55512;50.102;19.958;2022-08-21T08:41:00;25.46;64.64
68511;SHT31;55512;50.102;19.958;2022-08-21T08:43:39;25.52;64.63
68511;SHT31;55512;50.102;19.958;2022-08-21T08:46:11;25.54;64.60
68511;SHT31;55512;50.102;19.958;2022-08-21T08:48:57;25.58;64.55
68511;SHT31;55512;50.102;19.958;2022-08-21T08:51:43;25.59;64.49
68511;SHT31;55512;50.102;19.958;2022-08-21T08:54:21;25.64;64.38
68511;SHT31;55512;50.102;19.958;2022-08-21T08:57:15;25.70;64.30
68511;SHT31;55512;50.102;19.958;2022-08-21T08:59:45;25.75;64.26
68511;SHT31;55512;50.102;19.958;2022-08-21T09:02:18;25.81;64.12
68511;SHT31;55512;50.102;19.958;2022-08-21T09:04:46;25.82;64.19
68511;SHT31;55512;50.102;19.958;2022-08-21T09:07:17;25.84;64.21
68511;SHT31;55512;50.102;19.958;2022-08-21T09:10:20;25.85;64.15
68511;SHT31;55512;50.102;19.958;2022-08-21T09:12:56;25.82;64.25
68511;SHT31;55512;50.102;19.958;2022-08-21T09:15:45;25.79;64.21
68511;SHT31;55512;50.102;19.958;2022-08-21T09:18:40;25.86;64.23
68511;SHT31;55512;50.102;19.958;2022-08-21T09:27:33;26.06;64.04
68511;SHT31;55512;50.102;19.958;2022-08-21T09:29:59;26.10;63.89
68511;SHT31;55512;50.102;19.958;2022-08-21T09:32:28;26.13;63.82
68511;SHT31;55512;50.102;19.958;2022-08-21T09:35:01;26.14;63.68
68511;SHT31;55512;50.102;19.958;2022-08-21T09:45:45;26.30;63.54
68511;SHT31;55512;50.102;19.958;2022-08-21T09:48:18;26.35;63.45
68511;SHT31;55512;50.102;19.958;2022-08-21T09:50:48;26.40;63.30
68511;SHT31;55512;50.102;19.958;2022-08-21T09:53:20;26.41;63.22
68511;SHT31;55512;50.102;19.958;2022-08-21T09:55:52;26.41;63.18
68511;SHT31;55512;50.102;19.958;2022-08-21T09:58:48;26.42;63.20
68511;SHT31;55512;50.102;19.958;2022-08-21T10:01:21;26.45;63.26
68511;SHT31;55512;50.102;19.958;2022-08-21T10:04:03;26.48;63.16
68511;SHT31;55512;50.102;19.958;2022-08-21T10:06:33;26.51;63.09
68511;SHT31;55512;50.102;19.958;2022-08-21T10:09:06;26.55;63.00
68511;SHT31;55512;50.102;19.958;2022-08-21T10:11:36;26.61;62.84
68511;SHT31;55512;50.102;19.958;2022-08-21T10:19:41;26.73;62.60
68511;SHT31;55512;50.102;19.958;2022-08-21T10:25:31;26.87;62.42
68511;SHT31;55512;50.102;19.958;2022-08-21T10:31:13;27.00;62.08
68511;SHT31;55512;50.102;19.958;2022-08-21T10:37:41;27.06;61.86
68511;SHT31;55512;50.102;19.958;2022-08-21T10:45:41;27.19;61.63
68511;SHT31;55512;50.102;19.958;2022-08-21T10:48:39;27.26;61.53
68511;SHT31;55512;50.102;19.958;2022-08-21T10:51:34;27.29;61.53
68511;SHT31;55512;50.102;19.958;2022-08-21T10:54:26;27.32;61.68
68511;SHT31;55512;50.102;19.958;2022-08-21T10:57:30;27.31;61.60
68511;SHT31;55512;50.102;19.958;2022-08-21T11:00:23;27.28;61.60
68511;SHT31;55512;50.102;19.958;2022-08-21T11:03:03;27.22;61.51
68511;SHT31;55512;50.102;19.958;2022-08-21T11:05:48;27.17;61.54
68511;SHT31;55512;50.102;19.958;2022-08-21T11:11:05;27.02;61.61
68511;SHT31;55512;50.102;19.958;2022-08-21T11:13:45;26.94;61.60
68511;SHT31;55512;50.102;19.958;2022-08-21T11:16:32;26.84;61.72
68511;SHT31;55512;50.102;19.958;2022-08-21T11:19:08;26.75;61.84
68511;SHT31;55512;50.102;19.958;2022-08-21T11:22:00;26.69;61.82
68511;SHT31;55512;50.102;19.958;2022-08-21T11:24:41;26.61;61.58
68511;SHT31;55512;50.102;19.958;2022-08-21T11:27:21;26.52;61.42
68511;SHT31;55512;50.102;19.958;2022-08-21T11:29:54;26.51;61.35
68511;SHT31;55512;50.102;19.958;2022-08-21T11:35:09;26.45;60.93
68511;SHT31;55512;50.102;19.958;2022-08-21T11:40:26;26.34;61.25
68511;SHT31;55512;50.102;19.958;2022-08-21T11:49:55;25.94;61.81
68511;SHT31;55512;50.102;19.958;2022-08-21T11:52:47;25.85;62.18
68511;SHT31;55512;50.102;19.958;2022-08-21T11:55:38;25.77;62.47
68511;SHT31;55512;50.102;19.958;2022-08-21T11:58:36;25.69;62.64
68511;SHT31;55512;50.102;19.958;2022-08-21T12:01:20;25.63;62.98
68511;SHT31;55512;50.102;19.958;2022-08-21T12:06:44;25.56;63.64
68511;SHT31;55512;50.102;19.958;2022-08-21T12:09:27;25.52;64.12
68511;SHT31;55512;50.102;19.958;2022-08-21T12:12:10;25.56;64.41
68511;SHT31;55512;50.102;19.958;2022-08-21T12:14:49;25.62;64.53
68511;SHT31;55512;50.102;19.958;2022-08-21T12:17:36;25.64;64.47
68511;SHT31;55512;50.102;19.958;2022-08-21T12:22:52;25.65;64.73
68511;SHT31;55512;50.102;19.958;2022-08-21T12:25:35;25.66;64.84
68511;SHT31;55512;50.102;19.958;2022-08-21T12:28:09;25.63;65.07
68511;SHT31;55512;50.102;19.958;2022-08-21T12:30:43;25.70;65.08
68511;SHT31;55512;50.102;19.958;2022-08-21T12:36:10;25.79;64.99
68511;SHT31;55512;50.102;19.958;2022-08-21T12:38:50;25.86;64.95
68511;SHT31;55512;50.102;19.958;2022-08-21T12:41:29;26.01;64.78
68511;SHT31;55512;50.102;19.958;2022-08-21T12:44:23;26.14;64.57
68511;SHT31;55512;50.102;19.958;2022-08-21T12:47:17;26.28;64.40
68511;SHT31;55512;50.102;19.958;2022-08-21T12:49:57;26.42;64.18
68511;SHT31;55512;50.102;19.958;2022-08-21T12:55:40;26.57;64.09
68511;SHT31;55512;50.102;19.958;2022-08-21T12:58:24;26.65;63.89
68511;SHT31;55512;50.102;19.958;2022-08-21T13:04:17;26.81;63.65
68511;SHT31;55512;50.102;19.958;2022-08-21T13:06:50;26.85;63.60
68511;SHT31;55512;50.102;19.958;2022-08-21T13:09:28;26.85;63.63
68511;SHT31;55512;50.102;19.958;2022-08-21T13:11:56;26.92;63.62
68511;SHT31;55512;50.102;19.958;2022-08-21T13:14:37;26.95;63.29
68511;SHT31;55512;50.102;19.958;2022-08-21T13:17:07;26.99;63.03
68511;SHT31;55512;50.102;19.958;2022-08-21T13:19:36;27.02;62.81
68511;SHT31;55512;50.102;19.958;2022-08-21T13:22:02;27.04;62.69
68511;SHT31;55512;50.102;19.958;2022-08-21T13:24:29;27.05;62.59
68511;SHT31;55512;50.102;19.958;2022-08-21T13:26:59;27.08;62.34
68511;SHT31;55512;50.102;19.958;2022-08-21T13:29:30;27.05;62.24
68511;SHT31;55512;50.102;19.958;2022-08-21T13:32:00;26.99;62.36
68511;SHT31;55512;50.102;19.958;2022-08-21T13:34:30;26.94;62.36
68511;SHT31;55512;50.102;19.958;2022-08-21T13:37:05;26.87;62.37
68511;SHT31;55512;50.102;19.958;2022-08-21T13:39:33;26.74;62.27
68511;SHT31;55512;50.102;19.958;2022-08-21T13:42:00;26.62;62.46
68511;SHT31;55512;50.102;19.958;2022-08-21T13:44:39;26.51;62.45
68511;SHT31;55512;50.102;19.958;2022-08-21T13:47:10;26.39;62.55
68511;SHT31;55512;50.102;19.958;2022-08-21T13:49:40;26.30;62.69
68511;SHT31;55512;50.102;19.958;2022-08-21T13:52:14;26.21;62.94
68511;SHT31;55512;50.102;19.958;2022-08-21T13:54:56;26.15;63.17
68511;SHT31;55512;50.102;19.958;2022-08-21T13:57:34;26.07;63.13
68511;SHT31;55512;50.102;19.958;2022-08-21T14:03:02;25.91;63.34
68511;SHT31;55512;50.102;19.958;2022-08-21T14:05:38;25.84;63.54
68511;SHT31;55512;50.102;19.958;2022-08-21T14:08:12;25.77;63.74
68511;SHT31;55512;50.102;19.958;2022-08-21T14:10:42;25.68;63.92
68511;SHT31;55512;50.102;19.958;2022-08-21T14:16:22;25.56;64.38
68511;SHT31;55512;50.102;19.958;2022-08-21T14:26:56;25.39;65.04
68511;SHT31;55512;50.102;19.958;2022-08-21T14:29:33;25.36;65.15
68511;SHT31;55512;50.102;19.958;2022-08-21T14:34:38;25.29;65.35
68511;SHT31;55512;50.102;19.958;2022-08-21T14:37:04;25.24;65.45
68511;SHT31;55512;50.102;19.958;2022-08-21T14:39:30;25.21;65.59
68511;SHT31;55512;50.102;19.958;2022-08-21T14:41:56;25.22;65.63
68511;SHT31;55512;50.102;19.958;2022-08-21T14:44:24;25.23;65.59
68511;SHT31;55512;50.102;19.958;2022-08-21T14:46:50;25.22;65.62
68511;SHT31;55512;50.102;19.958;2022-08-21T14:49:15;25.21;65.67
68511;SHT31;55512;50.102;19.958;2022-08-21T14:51:41;25.19;65.70
68511;SHT31;55512;50.102;19.958;2022-08-21T14:54:07;25.19;65.65
68511;SHT31;55512;50.102;19.958;2022-08-21T14:56:33;25.18;65.63
68511;SHT31;55512;50.102;19.958;2022-08-21T14:59:02;25.18;65.59
68511;SHT31;55512;50.102;19.958;2022-08-21T15:01:43;25.15;65.60
68511;SHT31;55512;50.102;19.958;2022-08-21T15:04:10;25.11;65.69
68511;SHT31;55512;50.102;19.958;2022-08-21T15:06:36;25.04;65.82
68511;SHT31;55512;50.102;19.958;2022-08-21T15:09:01;24.99;65.99
68511;SHT31;55512;50.102;19.958;2022-08-21T15:11:29;24.92;66.19
68511;SHT31;55512;50.102;19.958;2022-08-21T15:13:57;24.93;66.16
68511;SHT31;55512;50.102;19.958;2022-08-21T15:16:28;24.90;66.24
68511;SHT31;55512;50.102;19.958;2022-08-21T15:18:56;24.84;66.37
68511;SHT31;55512;50.102;19.958;2022-08-21T15:21:22;24.81;66.40
68511;SHT31;55512;50.102;19.958;2022-08-21T15:23:48;24.80;66.40
68511;SHT31;55512;50.102;19.958;2022-08-21T15:26:14;24.79;66.40
68511;SHT31;55512;50.102;19.958;2022-08-21T15:28:40;24.77;66.27
68511;SHT31;55512;50.102;19.958;2022-08-21T15:31:07;24.76;66.03
68511;SHT31;55512;50.102;19.958;2022-08-21T15:33:32;24.74;65.84
68511;SHT31;55512;50.102;19.958;2022-08-21T15:36:00;24.70;65.66
68511;SHT31;55512;50.102;19.958;2022-08-21T15:38:26;24.68;65.41
68511;SHT31;55512;50.102;19.958;2022-08-21T15:40:51;24.65;65.35
68511;SHT31;55512;50.102;19.958;2022-08-21T15:43:28;24.61;65.36
68511;SHT31;55512;50.102;19.958;2022-08-21T15:46:00;24.54;65.15
68511;SHT31;55512;50.102;19.958;2022-08-21T15:48:27;24.45;65.33
68511;SHT31;55512;50.102;19.958;2022-08-21T15:50:53;24.39;65.39
68511;SHT31;55512;50.102;19.958;2022-08-21T15:53:19;24.33;65.43
68511;SHT31;55512;50.102;19.958;2022-08-21T15:55:44;24.27;65.40
68511;SHT31;55512;50.102;19.958;2022-08-21T15:58:12;24.20;65.49
68511;SHT31;55512;50.102;19.958;2022-08-21T16:00:40;24.13;65.60
68511;SHT31;55512;50.102;19.958;2022-08-21T16:03:09;24.04;65.58
68511;SHT31;55512;50.102;19.958;2022-08-21T16:05:41;23.97;65.74
68511;SHT31;55512;50.102;19.958;2022-08-21T16:08:09;23.89;65.65
68511;SHT31;55512;50.102;19.958;2022-08-21T16:10:35;23.78;65.70
68511;SHT31;55512;50.102;19.958;2022-08-21T16:13:04;23.66;65.90
68511;SHT31;55512;50.102;19.958;2022-08-21T16:15:36;23.58;66.04
68511;SHT31;55512;50.102;19.958;2022-08-21T16:18:01;23.46;66.24
68511;SHT31;55512;50.102;19.958;2022-08-21T16:20:29;23.36;66.57
68511;SHT31;55512;50.102;19.958;2022-08-21T16:22:55;23.22;66.99
68511;SHT31;55512;50.102;19.958;2022-08-21T16:25:22;23.10;67.21
68511;SHT31;55512;50.102;19.958;2022-08-21T16:27:50;22.98;67.57
68511;SHT31;55512;50.102;19.958;2022-08-21T16:30:23;22.89;67.64
68511;SHT31;55512;50.102;19.958;2022-08-21T16:32:50;22.79;67.78
68511;SHT31;55512;50.102;19.958;2022-08-21T16:35:18;22.70;67.97
68511;SHT31;55512;50.102;19.958;2022-08-21T16:37:45;22.61;68.17
68511;SHT31;55512;50.102;19.958;2022-08-21T16:40:12;22.51;68.33
68511;SHT31;55512;50.102;19.958;2022-08-21T16:42:40;22.40;68.59
68511;SHT31;55512;50.102;19.958;2022-08-21T16:45:07;22.35;68.78
68511;SHT31;55512;50.102;19.958;2022-08-21T16:47:37;22.34;68.91
68511;SHT31;55512;50.102;19.958;2022-08-21T16:50:04;22.32;69.15
68511;SHT31;55512;50.102;19.958;2022-08-21T16:52:31;22.28;69.29
68511;SHT31;55512;50.102;19.958;2022-08-21T16:54:58;22.22;69.49
68511;SHT31;55512;50.102;19.958;2022-08-21T16:57:24;22.19;69.63